Time;durP1;ratioP1;P1;durP2;ratioP2;P2;SDS_P1;SDS_P2;PMS_P1;PMS_P2;Temp;Humidity;BMP_temperature;BMP_pressure;BME280_temperature;BME280_humidity;BME280_pressure;Samples;Min_cycle;Max_cycle;Signal;HPM_P1;HPM_P2
2023/12/17 00:02:18;;;;;;;36.35;22.52;;;;;;;18.62;56.16;103803.97;5026942;28;20055;-45
2023/12/17 00:04:44;;;;;;;36.78;23.38;;;;;;;18.60;56.37;103800.47;5025650;28;20535;-45
2023/12/17 00:07:11;;;;;;;33.92;22.00;;;;;;;18.57;56.53;103792.59;5028437;28;20659;-45
2023/12/17 00:09:38;;;;;;;36.60;22.45;;;;;;;18.55;56.73;103791.81;5027664;28;20052;-45
2023/12/17 00:12:05;;;;;;;35.03;21.80;;;;;;;18.53;56.90;103788.34;5024459;28;20117;-45
2023/12/17 00:14:31;;;;;;;33.63;21.67;;;;;;;18.50;56.84;103796.59;5022567;28;20053;-45
2023/12/17 00:16:58;;;;;;;36.53;21.27;;;;;;;18.48;56.55;103796.66;5026267;28;20041;-45
2023/12/17 00:19:24;;;;;;;35.08;21.95;;;;;;;18.45;57.12;103791.47;5028809;28;20092;-45
2023/12/17 00:21:51;;;;;;;36.47;21.70;;;;;;;18.42;56.51;103802.38;5027599;28;20045;-45
2023/12/17 00:24:18;;;;;;;34.97;21.33;;;;;;;18.40;57.03;103806.94;5029867;28;20140;-44
2023/12/17 00:26:44;;;;;;;33.90;20.92;;;;;;;18.38;56.54;103810.69;5017648;28;20141;-45
2023/12/17 00:29:11;;;;;;;30.95;19.48;;;;;;;18.36;56.93;103813.44;5019400;28;20053;-45
2023/12/17 00:31:38;;;;;;;33.92;21.88;;;;;;;18.34;56.68;103806.44;5022225;28;20099;-45
2023/12/17 00:34:05;;;;;;;33.60;21.55;;;;;;;18.32;57.29;103805.63;5022231;28;20437;-45
2023/12/17 00:36:31;;;;;;;31.92;20.70;;;;;;;18.30;57.03;103799.50;5027355;28;20437;-45
2023/12/17 00:38:58;;;;;;;34.65;20.60;;;;;;;18.25;57.14;103800.63;5025552;28;20133;-45
2023/12/17 00:41:25;;;;;;;33.58;20.90;;;;;;;18.23;57.22;103807.88;5025467;28;20373;-46
2023/12/17 00:43:51;;;;;;;32.83;19.85;;;;;;;18.21;56.76;103804.41;5028402;28;20143;-45
2023/12/17 00:46:18;;;;;;;28.88;18.50;;;;;;;18.18;56.93;103795.66;5024431;28;20057;-45
2023/12/17 00:48:44;;;;;;;32.90;19.60;;;;;;;18.16;57.01;103790.34;5028224;28;20163;-45
2023/12/17 00:51:12;;;;;;;30.33;19.75;;;;;;;18.13;56.72;103782.47;5027640;28;20067;-45
2023/12/17 00:53:38;;;;;;;31.02;20.13;;;;;;;18.12;57.36;103780.72;5025365;28;20052;-45
2023/12/17 00:56:05;;;;;;;30.15;19.15;;;;;;;18.10;57.04;103785.31;5024014;28;20124;-45
2023/12/17 00:58:32;;;;;;;29.10;18.48;;;;;;;18.08;56.97;103784.53;5022113;28;20061;-45
2023/12/17 01:00:59;;;;;;;28.15;18.40;;;;;;;18.07;57.35;103789.97;5023126;28;20101;-45
2023/12/17 01:03:25;;;;;;;29.00;18.55;;;;;;;18.05;57.39;103789.19;5019659;28;20068;-45
2023/12/17 01:05:52;;;;;;;28.27;18.52;;;;;;;18.02;57.24;103782.19;5025349;28;20060;-45
2023/12/17 01:08:19;;;;;;;28.55;18.15;;;;;;;18.00;57.49;103781.38;5025941;28;20049;-45
2023/12/17 01:10:45;;;;;;;29.67;18.63;;;;;;;17.98;56.86;103781.47;5026997;28;20088;-45
2023/12/17 01:13:12;;;;;;;28.25;17.70;;;;;;;17.96;56.71;103775.31;5024159;28;20132;-45
2023/12/17 01:15:39;;;;;;;25.80;16.77;;;;;;;17.94;57.47;103762.94;5024040;28;20049;-45
2023/12/17 01:18:06;;;;;;;28.10;17.90;;;;;;;17.93;56.95;103759.41;5021251;28;20455;-44
2023/12/17 01:20:33;;;;;;;27.83;17.10;;;;;;;17.92;57.25;103754.94;5024406;28;20444;-45
2023/12/17 01:22:59;;;;;;;25.88;16.83;;;;;;;17.91;57.03;103755.03;5024600;28;20135;-45
2023/12/17 01:25:26;;;;;;;26.23;16.77;;;;;;;17.90;57.45;103764.06;5027354;28;20053;-45
2023/12/17 01:27:52;;;;;;;27.80;16.60;;;;;;;17.87;57.39;103759.72;5023323;28;20053;-45
2023/12/17 01:30:19;;;;;;;24.00;15.48;;;;;;;17.86;57.36;103754.44;5025978;28;20388;-45
2023/12/17 01:32:46;;;;;;;24.10;15.95;;;;;;;17.84;57.33;103757.19;5019936;28;20049;-45
2023/12/17 01:35:12;;;;;;;25.98;16.55;;;;;;;17.84;57.37;103756.31;5022593;28;20050;-45
2023/12/17 01:37:39;;;;;;;24.65;15.75;;;;;;;17.83;57.13;103757.28;5022201;28;20497;-45
2023/12/17 01:40:07;;;;;;;25.27;15.85;;;;;;;17.80;57.06;103752.91;5022985;28;20049;-45
2023/12/17 01:42:33;;;;;;;25.90;15.77;;;;;;;17.80;57.28;103760.09;5020538;28;20100;-45
2023/12/17 01:45:00;;;;;;;23.15;13.95;;;;;;;17.78;57.20;103768.25;5024594;28;20073;-45
2023/12/17 01:47:26;;;;;;;23.92;15.20;;;;;;;17.78;57.10;103772.75;5022790;28;20053;-45
2023/12/17 01:49:53;;;;;;;23.17;14.57;;;;;;;17.76;57.07;103778.19;5026640;28;20049;-45
2023/12/17 01:52:20;;;;;;;24.55;14.57;;;;;;;17.75;57.48;103774.63;5026389;28;20050;-45
2023/12/17 01:54:47;;;;;;;22.77;14.60;;;;;;;17.73;57.33;103776.50;5031364;28;20057;-45
2023/12/17 01:57:14;;;;;;;21.42;13.73;;;;;;;17.72;57.46;103772.06;5031973;28;20045;-45
2023/12/17 01:59:41;;;;;;;20.85;13.55;;;;;;;17.71;57.03;103774.84;5029562;28;20056;-45
2023/12/17 02:02:10;;;;;;;21.50;14.15;;;;;;;17.70;57.30;103787.41;5028175;28;20456;-43
2023/12/17 02:04:37;;;;;;;20.65;13.07;;;;;;;17.70;57.06;103781.16;5023577;28;20107;-43
2023/12/17 02:07:04;;;;;;;21.20;13.48;;;;;;;17.69;57.02;103785.66;5034899;28;20045;-43
2023/12/17 02:09:30;;;;;;;22.23;13.20;;;;;;;17.68;57.16;103789.28;5032900;28;20051;-46
2023/12/17 02:11:57;;;;;;;22.65;14.02;;;;;;;17.66;57.11;103793.88;5025787;28;20049;-43
2023/12/17 02:14:24;;;;;;;19.52;12.63;;;;;;;17.66;57.44;103790.31;5030538;28;20076;-46
2023/12/17 02:16:50;;;;;;;19.58;12.75;;;;;;;17.64;57.32;103785.00;5027869;28;20080;-43
2023/12/17 02:19:17;;;;;;;19.58;11.93;;;;;;;17.63;57.41;103785.97;5029819;28;20049;-45
2023/12/17 02:21:44;;;;;;;16.88;11.32;;;;;;;17.63;57.29;103780.59;5027381;28;20054;-44
2023/12/17 02:24:12;;;;;;;19.00;11.55;;;;;;;17.61;57.45;103777.16;5028004;28;20053;-44
2023/12/17 02:26:42;;;;;;;20.23;12.13;;;;;;;17.60;57.21;103788.81;5030236;28;20045;-44
2023/12/17 02:29:09;;;;;;;19.35;12.23;;;;;;;17.59;57.31;103789.75;5026946;28;20893;-44
2023/12/17 02:31:36;;;;;;;18.38;11.98;;;;;;;17.58;57.38;103796.06;5028400;28;20491;-44
2023/12/17 02:34:02;;;;;;;16.70;11.40;;;;;;;17.58;57.39;103795.22;5019796;28;20503;-44
2023/12/17 02:36:29;;;;;;;15.82;10.98;;;;;;;17.57;57.31;103805.06;5027307;28;20050;-44
2023/12/17 02:38:56;;;;;;;16.92;11.20;;;;;;;17.57;56.78;103793.44;5023644;28;20053;-44
2023/12/17 02:41:23;;;;;;;16.23;11.07;;;;;;;17.56;57.09;103789.91;5023677;28;20122;-45
2023/12/17 02:43:49;;;;;;;16.60;10.20;;;;;;;17.55;57.05;103782.81;5027035;28;20124;-44
2023/12/17 02:46:16;;;;;;;17.00;11.52;;;;;;;17.55;57.21;103781.94;5028289;28;20057;-45
2023/12/17 02:48:43;;;;;;;18.42;10.52;;;;;;;17.55;57.36;103781.94;5027552;28;20129;-45
2023/12/17 02:51:09;;;;;;;15.93;10.60;;;;;;;17.53;57.07;103779.34;5031726;28;20128;-45
2023/12/17 02:53:36;;;;;;;16.35;10.75;;;;;;;17.52;57.59;103786.50;5028127;28;20081;-44
2023/12/17 02:56:03;;;;;;;16.60;11.32;;;;;;;17.52;56.69;103782.97;5028632;28;20076;-44
2023/12/17 02:58:29;;;;;;;15.90;10.35;;;;;;;17.51;57.55;103776.72;5024925;28;20465;-45
2023/12/17 03:00:56;;;;;;;15.60;10.20;;;;;;;17.51;57.14;103776.72;5025345;28;20049;-45
2023/12/17 03:03:22;;;;;;;16.55;10.85;;;;;;;17.50;57.31;103766.09;5026625;28;20437;-44
2023/12/17 03:05:49;;;;;;;14.90;9.63;;;;;;;17.49;57.10;103773.28;5027000;28;20660;-45
2023/12/17 03:08:16;;;;;;;14.25;9.80;;;;;;;17.49;57.39;103764.38;5028672;28;20052;-45
2023/12/17 03:10:43;;;;;;;14.20;9.00;;;;;;;17.49;57.21;103767.91;5028496;28;20054;-44
2023/12/17 03:13:09;;;;;;;14.85;9.48;;;;;;;17.48;57.39;103765.28;5026197;28;20131;-45
2023/12/17 03:15:37;;;;;;;15.02;9.75;;;;;;;17.48;57.33;103767.97;5028088;28;20064;-45
2023/12/17 03:18:04;;;;;;;15.10;9.73;;;;;;;17.47;57.12;103756.38;5021889;28;20053;-45
2023/12/17 03:20:31;;;;;;;14.45;9.00;;;;;;;17.47;57.37;103760.88;5024265;28;20346;-44
2023/12/17 03:22:58;;;;;;;14.30;8.88;;;;;;;17.46;56.86;103761.84;5024046;28;20057;-44
2023/12/17 03:25:26;;;;;;;16.23;8.80;;;;;;;17.46;57.50;103761.84;5027172;28;20115;-44
2023/12/17 03:27:52;;;;;;;12.88;8.23;;;;;;;17.45;57.06;103763.66;5028808;28;20056;-44
2023/12/17 03:30:19;;;;;;;14.10;8.95;;;;;;;17.43;57.14;103762.84;5023964;28;20041;-44
2023/12/17 03:32:46;;;;;;;11.65;7.80;;;;;;;17.44;57.32;103764.56;5033435;28;20053;-44
2023/12/17 03:35:13;;;;;;;12.23;7.93;;;;;;;17.43;56.94;103762.00;5032357;28;20265;-44
2023/12/17 03:37:40;;;;;;;13.23;8.82;;;;;;;17.42;57.19;103758.44;5028540;28;20345;-45
2023/12/17 03:40:07;;;;;;;11.60;7.60;;;;;;;17.41;56.65;103762.06;5028266;28;20133;-44
2023/12/17 03:42:34;;;;;;;12.93;7.88;;;;;;;17.41;57.11;103759.41;5021972;28;20516;-44
2023/12/17 03:45:01;;;;;;;11.20;7.63;;;;;;;17.40;56.84;103754.97;5026345;28;20430;-44
2023/12/17 03:47:28;;;;;;;10.85;7.47;;;;;;;17.39;57.28;103745.19;5019339;28;20318;-44
2023/12/17 03:49:54;;;;;;;12.38;7.65;;;;;;;17.39;56.79;103747.00;5028386;28;20115;-44
2023/12/17 03:52:21;;;;;;;11.63;7.32;;;;;;;17.39;56.93;103736.28;5022785;28;20449;-44
2023/12/17 03:54:48;;;;;;;10.85;6.85;;;;;;;17.38;56.86;103730.06;5026126;28;20049;-45
2023/12/17 03:57:14;;;;;;;9.70;6.50;;;;;;;17.38;56.96;103732.72;5026127;28;20628;-44
2023/12/17 03:59:41;;;;;;;10.82;6.82;;;;;;;17.37;57.27;103730.16;5028527;28;20127;-44
2023/12/17 04:02:08;;;;;;;10.60;6.72;;;;;;;17.36;56.98;103721.22;5028556;28;20119;-44
2023/12/17 04:04:34;;;;;;;10.30;6.38;;;;;;;17.36;56.89;103725.72;5031867;28;20436;-45
2023/12/17 04:07:01;;;;;;;10.05;6.57;;;;;;;17.35;57.29;103715.94;5032313;28;20053;-44
2023/12/17 04:09:28;;;;;;;11.20;7.25;;;;;;;17.34;56.35;103711.53;5028397;28;20073;-45
2023/12/17 04:11:54;;;;;;;11.77;6.72;;;;;;;17.33;56.73;103726.75;5022417;28;20447;-44
2023/12/17 04:14:21;;;;;;;12.70;6.63;;;;;;;17.32;56.92;103727.66;5023526;28;20107;-44
2023/12/17 04:16:48;;;;;;;11.30;6.90;;;;;;;17.32;56.77;103730.34;5021130;28;20506;-44
2023/12/17 04:19:15;;;;;;;10.57;6.43;;;;;;;17.32;56.28;103726.81;5024795;28;20136;-45
2023/12/17 04:21:41;;;;;;;11.43;6.57;;;;;;;17.32;57.25;103727.66;5024994;28;20107;-44
2023/12/17 04:24:08;;;;;;;10.00;6.00;;;;;;;17.31;56.75;103725.09;5024451;28;20042;-44
2023/12/17 04:26:35;;;;;;;10.07;6.78;;;;;;;17.31;57.01;103722.41;5023854;28;20053;-44
2023/12/17 04:29:02;;;;;;;9.88;6.30;;;;;;;17.29;56.77;103722.50;5027911;28;20053;-44
2023/12/17 04:31:29;;;;;;;11.52;6.18;;;;;;;17.28;56.90;103718.91;5045232;28;20095;-44
2023/12/17 04:33:55;;;;;;;10.35;5.78;;;;;;;17.27;56.61;103711.81;5028499;28;20095;-45
2023/12/17 04:36:22;;;;;;;10.38;5.97;;;;;;;17.28;57.09;103715.38;5025509;28;20065;-45
2023/12/17 04:38:49;;;;;;;10.02;5.95;;;;;;;17.27;56.81;103713.66;5027505;28;20054;-44
2023/12/17 04:41:17;;;;;;;10.45;5.68;;;;;;;17.26;57.02;103707.41;5034339;28;20046;-44
2023/12/17 04:43:43;;;;;;;9.80;5.57;;;;;;;17.24;56.76;103709.28;5022281;28;20148;-44
2023/12/17 04:46:10;;;;;;;10.68;5.57;;;;;;;17.26;56.51;103719.97;5019625;28;20145;-44
2023/12/17 04:48:37;;;;;;;8.38;5.22;;;;;;;17.24;56.59;103720.03;5022476;28;20135;-44
2023/12/17 04:51:05;;;;;;;8.77;5.40;;;;;;;17.24;56.62;103714.66;5027061;28;20432;-44
2023/12/17 04:53:31;;;;;;;8.45;4.80;;;;;;;17.24;56.61;103711.13;5025425;28;20045;-44
2023/12/17 04:55:58;;;;;;;7.35;4.80;;;;;;;17.24;56.78;103713.78;5026135;28;20500;-44
2023/12/17 04:58:25;;;;;;;9.30;5.50;;;;;;;17.23;56.46;103710.25;5031258;28;20483;-44
2023/12/17 05:00:51;;;;;;;8.02;4.97;;;;;;;17.22;56.91;103705.84;5025102;28;20121;-45
2023/12/17 05:03:18;;;;;;;8.23;5.28;;;;;;;17.22;56.91;103697.81;5020424;28;20057;-44
2023/12/17 05:05:45;;;;;;;9.57;4.97;;;;;;;17.22;56.76;103695.13;5026546;28;20090;-44
2023/12/17 05:08:12;;;;;;;9.15;4.80;;;;;;;17.21;56.67;103696.06;5027209;28;20091;-45
2023/12/17 05:10:38;;;;;;;7.72;5.18;;;;;;;17.20;56.73;103701.50;5024449;28;20730;-44
2023/12/17 05:13:05;;;;;;;7.13;4.40;;;;;;;17.20;56.69;103701.50;5024426;28;20080;-44
2023/12/17 05:15:31;;;;;;;8.15;4.22;;;;;;;17.19;56.45;103700.63;5030760;28;20100;-45
2023/12/17 05:17:59;;;;;;;9.00;5.32;;;;;;;17.19;56.39;103702.44;5024720;28;20099;-44
2023/12/17 05:20:26;;;;;;;9.27;5.05;;;;;;;17.19;56.72;103691.72;5020703;28;20057;-45
2023/12/17 05:22:53;;;;;;;6.57;4.32;;;;;;;17.18;57.15;103698.91;5017559;28;20050;-44
2023/12/17 05:25:20;;;;;;;7.10;4.32;;;;;;;17.18;56.60;103701.59;5021025;28;20053;-44
2023/12/17 05:27:47;;;;;;;7.10;4.88;;;;;;;17.18;56.41;103698.91;5022038;28;20049;-45
2023/12/17 05:30:14;;;;;;;9.35;4.45;;;;;;;17.18;56.72;103695.38;5021936;28;20434;-44
2023/12/17 05:32:41;;;;;;;6.55;4.00;;;;;;;17.16;56.38;103684.69;5023803;28;20058;-44
2023/12/17 05:35:08;;;;;;;6.45;3.95;;;;;;;17.17;56.95;103694.50;5024195;28;20136;-45
2023/12/17 05:37:34;;;;;;;7.28;3.88;;;;;;;17.16;56.80;103689.19;5024279;28;20149;-44
2023/12/17 05:40:02;;;;;;;8.20;4.40;;;;;;;17.15;56.96;103687.47;5029024;28;20049;-44
2023/12/17 05:42:28;;;;;;;8.52;4.22;;;;;;;17.14;56.33;103689.28;5026802;28;20168;-45
2023/12/17 05:44:55;;;;;;;7.65;3.67;;;;;;;17.14;56.90;103689.28;5026804;28;20347;-44
2023/12/17 05:47:21;;;;;;;6.63;3.58;;;;;;;17.13;56.85;103698.28;5018416;28;20054;-45
2023/12/17 05:49:48;;;;;;;7.05;3.85;;;;;;;17.12;56.59;103692.97;5022015;28;20046;-45
2023/12/17 05:52:15;;;;;;;8.23;4.05;;;;;;;17.11;56.39;103702.84;5020631;28;20050;-44
2023/12/17 05:54:43;;;;;;;7.82;4.05;;;;;;;17.10;56.71;103701.09;5022243;28;20057;-44
2023/12/17 05:57:10;;;;;;;6.97;3.85;;;;;;;17.10;56.81;103703.78;5024783;28;20060;-45
2023/12/17 05:59:37;;;;;;;7.35;4.38;;;;;;;17.10;56.49;103702.94;5023950;28;20149;-44
2023/12/17 06:02:04;;;;;;;8.30;4.18;;;;;;;17.09;56.59;103710.09;5024061;28;20053;-45
2023/12/17 06:04:31;;;;;;;6.78;3.60;;;;;;;17.09;56.48;103711.91;5024053;28;20095;-44
2023/12/17 06:06:58;;;;;;;8.65;3.92;;;;;;;17.09;56.49;103718.13;5026910;28;20107;-44
2023/12/17 06:09:25;;;;;;;6.75;3.65;;;;;;;17.08;56.03;103705.66;5029371;28;20049;-45
2023/12/17 06:11:52;;;;;;;6.43;3.85;;;;;;;17.08;56.83;103697.63;5023125;28;21141;-44
2023/12/17 06:14:19;;;;;;;6.72;3.50;;;;;;;17.07;56.26;103703.94;5027000;28;20099;-44
2023/12/17 06:16:46;;;;;;;8.32;3.85;;;;;;;17.07;56.36;103701.25;5025760;28;20053;-44
2023/12/17 06:19:13;;;;;;;7.47;3.30;;;;;;;17.07;56.58;103703.06;5017615;28;20042;-44
2023/12/17 06:21:40;;;;;;;6.50;3.20;;;;;;;17.06;56.94;103707.56;5024433;28;20056;-45
2023/12/17 06:24:07;;;;;;;9.73;3.65;;;;;;;17.06;56.67;103706.72;5020955;28;20359;-45
2023/12/17 06:26:37;;;;;;;7.00;3.45;;;;;;;17.05;55.77;103699.63;5022188;28;20358;-45
2023/12/17 06:29:04;;;;;;;6.53;3.95;;;;;;;17.04;56.77;103701.41;5024550;28;20053;-44
2023/12/17 06:31:30;;;;;;;8.07;3.78;;;;;;;17.04;56.13;103706.75;5024285;28;20357;-45
2023/12/17 06:33:57;;;;;;;5.47;3.13;;;;;;;17.03;55.92;103705.03;5018247;28;20103;-44
2023/12/17 06:36:24;;;;;;;6.38;3.90;;;;;;;17.03;56.61;103719.28;5035668;28;20113;-44
2023/12/17 06:38:51;;;;;;;6.68;3.45;;;;;;;17.03;56.45;103716.63;5019810;28;20498;-44
2023/12/17 06:41:18;;;;;;;6.57;3.47;;;;;;;17.01;56.38;103715.84;5031254;28;20059;-44
2023/12/17 06:43:44;;;;;;;6.85;3.20;;;;;;;17.01;55.82;103712.31;5028847;28;20084;-44
2023/12/17 06:46:17;;;;;;;5.97;2.90;;;;;;;17.00;56.04;103713.22;5031280;28;20483;-45
2023/12/17 06:48:49;;;;;;;7.22;3.22;;;;;;;17.00;56.57;103721.25;5032585;28;20045;-44
2023/12/17 06:51:16;;;;;;;4.30;3.05;;;;;;;16.99;56.35;103712.34;5030412;28;20380;-45
2023/12/17 06:53:43;;;;;;;6.20;3.75;;;;;;;16.99;56.72;103714.19;5030101;28;20156;-44
2023/12/17 06:56:09;;;;;;;5.13;3.38;;;;;;;16.99;55.82;103714.19;5029884;28;20071;-45
2023/12/17 06:58:36;;;;;;;5.82;3.03;;;;;;;17.00;55.82;103710.53;5024988;28;20105;-45
2023/12/17 07:01:03;;;;;;;4.95;3.33;;;;;;;16.98;55.88;103707.09;5017221;28;20500;-45
2023/12/17 07:03:30;;;;;;;6.22;4.07;;;;;;;16.98;56.38;103707.94;5022797;28;20449;-45
2023/12/17 07:05:58;;;;;;;5.25;3.55;;;;;;;17.00;55.87;103710.53;5026975;28;20300;-44
2023/12/17 07:08:25;;;;;;;7.05;3.28;;;;;;;17.07;56.09;103708.44;5027662;28;20092;-44
2023/12/17 07:10:52;;;;;;;5.90;3.45;;;;;;;17.18;56.23;103715.00;5026654;28;20052;-44
2023/12/17 07:13:18;;;;;;;6.38;3.80;;;;;;;17.31;55.75;103709.84;5023830;28;20053;-44
2023/12/17 07:15:45;;;;;;;7.57;3.95;;;;;;;17.46;55.43;103717.13;5026152;28;20144;-46
2023/12/17 07:18:12;;;;;;;5.65;3.40;;;;;;;17.59;55.21;103717.34;5032310;28;20049;-43
2023/12/17 07:20:39;;;;;;;6.57;3.60;;;;;;;17.72;55.01;103702.31;5033440;28;20045;-43
2023/12/17 07:23:06;;;;;;;6.43;3.90;;;;;;;17.85;54.71;103712.44;5026679;28;20483;-46
2023/12/17 07:25:33;;;;;;;6.05;3.80;;;;;;;17.96;54.89;103708.22;5019725;28;20041;-46
2023/12/17 07:27:59;;;;;;;5.72;3.70;;;;;;;18.08;54.43;103712.06;5022796;28;20065;-44
2023/12/17 07:30:26;;;;;;;6.38;3.80;;;;;;;18.18;54.16;103707.06;5022611;28;20049;-46
2023/12/17 07:32:53;;;;;;;6.82;4.28;;;;;;;18.28;54.05;103702.91;5023612;28;20140;-44
2023/12/17 07:35:19;;;;;;;10.45;4.93;;;;;;;18.38;53.95;103714.00;5023846;28;20068;-44
2023/12/17 07:37:46;;;;;;;7.82;4.72;;;;;;;18.46;54.09;103706.38;5024501;28;20076;-44
2023/12/17 07:40:13;;;;;;;10.35;6.13;;;;;;;18.53;53.69;103715.81;5026904;28;20148;-45
2023/12/17 07:42:41;;;;;;;9.63;6.00;;;;;;;18.57;53.38;103712.00;5029388;28;20499;-44
2023/12/17 07:45:08;;;;;;;7.93;5.00;;;;;;;18.62;53.60;103712.63;5024025;28;20050;-44
2023/12/17 07:47:36;;;;;;;9.80;5.03;;;;;;;18.65;53.12;103719.63;5032529;28;20111;-44
2023/12/17 07:50:03;;;;;;;7.40;4.70;;;;;;;18.65;53.39;103716.94;5029225;28;20051;-44
2023/12/17 07:52:30;;;;;;;8.55;4.80;;;;;;;18.62;52.57;103715.31;5023371;28;20445;-44
2023/12/17 07:54:56;;;;;;;7.00;4.68;;;;;;;18.59;52.95;103718.16;5022497;28;20155;-44
2023/12/17 07:57:23;;;;;;;7.68;4.65;;;;;;;18.56;52.97;103720.16;5022753;28;20053;-44
2023/12/17 07:59:51;;;;;;;8.88;4.57;;;;;;;18.50;53.01;103722.25;5022987;28;20054;-44
2023/12/17 08:02:18;;;;;;;9.40;5.05;;;;;;;18.47;52.77;103725.09;5028007;28;20446;-44
2023/12/17 08:04:45;;;;;;;10.13;5.25;;;;;;;18.42;53.04;103724.50;5026569;28;20076;-44
2023/12/17 08:07:12;;;;;;;8.68;4.72;;;;;;;18.38;52.96;103733.66;5025205;28;20041;-44
2023/12/17 08:09:40;;;;;;;9.32;5.68;;;;;;;18.34;53.23;103739.31;5028491;28;20147;-44
2023/12/17 08:12:07;;;;;;;10.70;5.45;;;;;;;18.30;52.85;103733.22;5027935;28;20164;-44
2023/12/17 08:14:34;;;;;;;9.30;5.03;;;;;;;18.26;53.43;103731.66;5029012;28;20094;-44
2023/12/17 08:17:00;;;;;;;8.45;5.57;;;;;;;18.23;53.01;103740.75;5027735;28;20049;-44
2023/12/17 08:19:27;;;;;;;14.77;5.40;;;;;;;18.20;52.80;103740.03;5030268;28;20042;-44
2023/12/17 08:21:57;;;;;;;9.38;5.10;;;;;;;18.16;53.51;103742.03;5020652;28;20339;-44
2023/12/17 08:24:25;;;;;;;11.60;5.68;;;;;;;18.14;53.04;103743.94;5024821;28;20049;-44
2023/12/17 08:26:54;;;;;;;10.75;6.03;;;;;;;18.12;53.23;103735.09;5021801;28;20465;-44
2023/12/17 08:29:21;;;;;;;7.53;5.47;;;;;;;18.09;53.33;103732.59;5023816;28;20042;-44
2023/12/17 08:31:48;;;;;;;10.77;5.15;;;;;;;18.07;53.37;103726.44;5026826;28;20491;-44
2023/12/17 08:34:15;;;;;;;10.75;5.40;;;;;;;18.05;53.03;103728.34;5022811;28;20456;-44
2023/12/17 08:36:43;;;;;;;9.60;6.07;;;;;;;18.03;53.30;103732.91;5026191;28;20080;-44
2023/12/17 08:39:11;;;;;;;9.40;6.03;;;;;;;17.99;53.42;103721.47;5027794;28;20042;-44
2023/12/17 08:41:39;;;;;;;8.77;5.18;;;;;;;17.98;53.36;103735.84;5027871;28;20049;-44
2023/12/17 08:44:05;;;;;;;8.73;5.43;;;;;;;17.97;53.05;103735.94;5023197;28;20374;-44
2023/12/17 08:46:32;;;;;;;8.20;5.43;;;;;;;17.93;53.21;103735.25;5027570;28;20049;-45
2023/12/17 08:48:59;;;;;;;10.07;5.93;;;;;;;17.92;53.64;103738.00;5026083;28;20630;-45
2023/12/17 08:51:26;;;;;;;8.65;5.53;;;;;;;17.90;53.50;103732.72;5029157;28;20132;-44
2023/12/17 08:53:53;;;;;;;12.00;6.05;;;;;;;17.89;53.00;103732.78;5023705;28;20418;-44
2023/12/17 08:56:20;;;;;;;10.77;6.90;;;;;;;17.87;52.97;103730.19;5026534;28;20127;-45
2023/12/17 08:58:48;;;;;;;12.18;6.47;;;;;;;17.85;53.36;103728.53;5025045;28;20064;-44
2023/12/17 09:01:17;;;;;;;8.90;5.90;;;;;;;17.83;53.12;103731.31;5027160;28;20053;-44
2023/12/17 09:03:44;;;;;;;11.65;6.70;;;;;;;17.82;53.51;103729.56;5025622;28;20050;-45
2023/12/17 09:06:11;;;;;;;13.77;7.70;;;;;;;17.81;53.59;103729.63;5026783;28;20445;-45
2023/12/17 09:08:38;;;;;;;14.32;9.02;;;;;;;17.79;53.15;103731.56;5024658;28;20053;-44
2023/12/17 09:11:05;;;;;;;15.85;9.25;;;;;;;17.79;53.54;103728.88;5025288;28;20053;-44
2023/12/17 09:13:32;;;;;;;15.15;8.90;;;;;;;17.77;53.39;103731.66;5022876;28;20513;-44
2023/12/17 09:15:59;;;;;;;14.95;9.32;;;;;;;17.76;53.10;103733.44;5025970;28;20049;-44
2023/12/17 09:18:25;;;;;;;17.35;9.95;;;;;;;17.74;53.12;103737.13;5023787;28;20118;-44
2023/12/17 09:20:52;;;;;;;17.10;10.05;;;;;;;17.70;53.08;103744.47;5028816;28;20159;-44
2023/12/17 09:23:19;;;;;;;20.17;10.60;;;;;;;17.67;53.11;103739.25;5034067;28;20076;-44
2023/12/17 09:25:45;;;;;;;17.52;10.13;;;;;;;17.63;53.08;103750.22;5026500;28;20053;-45
2023/12/17 09:28:12;;;;;;;16.58;10.20;;;;;;;17.57;53.36;103747.84;5015478;28;20103;-45
2023/12/17 09:30:39;;;;;;;17.60;10.95;;;;;;;17.52;53.32;103746.28;5022997;28;20506;-45
2023/12/17 09:33:06;;;;;;;16.05;10.20;;;;;;;17.47;53.73;103748.34;5018707;28;20053;-45
2023/12/17 09:35:36;;;;;;;17.45;10.90;;;;;;;17.43;53.58;103745.91;5021208;28;20045;-45
2023/12/17 09:38:04;;;;;;;18.40;11.50;;;;;;;17.36;54.19;103753.38;5020466;28;20046;-45
2023/12/17 09:40:37;;;;;;;20.55;12.30;;;;;;;17.32;54.49;103750.94;5022847;28;20057;-45
2023/12/17 09:43:04;;;;;;;24.33;14.52;;;;;;;17.27;54.32;103753.84;5024720;28;20104;-45
2023/12/17 09:45:31;;;;;;;23.58;13.30;;;;;;;17.23;54.55;103749.59;5025362;28;20057;-45
2023/12/17 09:47:58;;;;;;;24.85;14.30;;;;;;;17.20;54.75;103745.25;5024503;28;20061;-45
2023/12/17 09:50:27;;;;;;;23.60;13.45;;;;;;;17.16;54.17;103750.84;5026926;28;20084;-44
2023/12/17 09:52:54;;;;;;;24.25;14.60;;;;;;;17.13;54.45;103742.97;5025332;28;20063;-44
2023/12/17 09:55:21;;;;;;;21.55;13.20;;;;;;;17.10;54.77;103733.28;5028149;28;20052;-44
2023/12/17 09:57:48;;;;;;;22.10;13.73;;;;;;;17.07;54.62;103740.59;5018630;28;20045;-44
2023/12/17 10:00:15;;;;;;;24.48;14.02;;;;;;;17.04;54.85;103736.25;5024362;28;20475;-44
2023/12/17 10:02:42;;;;;;;23.67;13.70;;;;;;;17.02;54.25;103722.06;5023519;28;20076;-44
2023/12/17 10:05:08;;;;;;;26.40;14.18;;;;;;;17.00;54.91;103738.22;5019225;28;20124;-45
2023/12/17 10:07:37;;;;;;;22.70;14.20;;;;;;;17.00;54.94;103729.28;5021741;28;20140;-44
2023/12/17 10:10:06;;;;;;;24.33;14.68;;;;;;;16.97;54.50;103729.47;5022047;28;20045;-44
2023/12/17 10:12:33;;;;;;;26.05;13.70;;;;;;;16.96;55.01;103731.25;5026005;28;20115;-44
2023/12/17 10:15:00;;;;;;;23.30;14.60;;;;;;;16.94;54.60;103726.94;5030775;28;20389;-45
2023/12/17 10:17:26;;;;;;;23.52;15.50;;;;;;;16.92;54.50;103723.44;5028926;28;20054;-44
2023/12/17 10:19:53;;;;;;;24.05;15.10;;;;;;;16.92;54.40;103724.31;5031673;28;20441;-44
2023/12/17 10:22:20;;;;;;;22.63;14.55;;;;;;;16.91;54.67;103721.72;5025453;28;20054;-45
2023/12/17 10:24:48;;;;;;;26.02;15.23;;;;;;;16.88;54.67;103708.47;5030088;28;20111;-45
2023/12/17 10:27:17;;;;;;;24.45;14.85;;;;;;;16.87;54.56;103712.97;5022613;28;20050;-44
2023/12/17 10:29:50;;;;;;;24.58;15.20;;;;;;;16.86;54.65;103715.75;5027394;28;20141;-44
2023/12/17 10:32:24;;;;;;;23.42;14.70;;;;;;;16.85;54.21;103711.34;5028125;28;20060;-44
2023/12/17 10:34:52;;;;;;;24.10;14.85;;;;;;;16.84;54.30;103709.56;5030249;28;20080;-44
2023/12/17 10:37:21;;;;;;;22.17;15.10;;;;;;;16.84;54.69;103705.06;5027541;28;20463;-44
2023/12/17 10:39:49;;;;;;;26.35;15.93;;;;;;;16.93;54.42;103693.06;5025482;28;20050;-44
2023/12/17 10:42:20;;;;;;;24.30;14.85;;;;;;;17.04;54.23;103696.03;5020957;28;20050;-45
2023/12/17 10:44:48;;;;;;;23.50;14.82;;;;;;;17.17;54.30;103688.28;5026261;28;20065;-44
2023/12/17 10:47:24;;;;;;;25.00;15.43;;;;;;;17.32;53.74;103689.28;5022198;28;20072;-45
2023/12/17 10:49:56;;;;;;;25.70;15.52;;;;;;;17.45;53.44;103690.41;5029255;28;20120;-45
2023/12/17 10:52:23;;;;;;;24.65;15.23;;;;;;;17.57;53.09;103687.06;5024741;28;20053;-44
2023/12/17 10:54:50;;;;;;;25.48;16.92;;;;;;;17.69;52.86;103685.56;5027226;28;20049;-44
2023/12/17 10:57:20;;;;;;;27.98;17.15;;;;;;;17.78;53.00;103681.53;5027831;28;20053;-45
2023/12/17 10:59:49;;;;;;;33.05;19.70;;;;;;;17.87;52.63;103670.28;5025028;28;20399;-41
2023/12/17 11:02:21;;;;;;;33.90;19.27;;;;;;;17.94;52.52;103671.69;5020802;28;20068;-42
2023/12/17 11:04:49;;;;;;;33.72;20.67;;;;;;;17.99;52.59;103675.84;5025816;28;20053;-41
2023/12/17 11:07:17;;;;;;;38.85;22.83;;;;;;;18.05;52.43;103661.25;5023406;28;20042;-43
2023/12/17 11:10:00;;;;;;;38.60;22.10;;;;;;;18.10;52.18;103659.16;5023823;28;20098;-43
2023/12/17 11:12:27;;;;;;;37.20;21.77;;;;;;;18.11;52.10;103657.34;5022576;28;20058;-42
2023/12/17 11:14:54;;;;;;;30.40;19.67;;;;;;;18.12;52.11;103651.03;5025598;28;20099;-41
2023/12/17 11:17:21;;;;;;;34.45;21.77;;;;;;;18.11;52.06;103652.84;4996779;28;20084;-43